Main page
METAR-TAF:

METAR-TAF

Airports :

Imperial Municipal Airport

Imperial, Nebraska, United States

latitude: 40-31N, longitude: 101-37W, elevation: 3270 ft

Current weather observation

The report was made 25 minutes ago, at 13:53 UTC
Wind 21 mph from the South with gusts up to 29 mph
Temperature 73°F
Humidity 73%
Pressure 30.17 in. Hg
Visibility: 10 miles
Scattered clouds at a height of 2000 ft

METAR: KIML 201353Z AUTO 17018G25KT 10SM SCT020 23/18 A3017 RMK AO2 PK WND 15030/1329 SLP192 T02280178

Time: 08:18 (14:18 UTC)


TAF: missing

Weather observations and forecasts of more than 4000 airports (METAR and TAF reports).

The available stations are represented by yellow and red dots on the map.

Hover mouse over dot to see the name of the station.

Then click to see weather observations and forecasts.

To change the map : click on the green buttons with a black cross to zoom in, on the green button with a dash to zoom out, or on the green arrows for adjacent maps.


METAR-TAF: